sensor_id;sensor_type;location;lat;lon;timestamp;P1;durP1;ratioP1;P2;durP2;ratioP2
75129;SDS011;63703;44.716;37.846;2022-10-13T00:02:14;3.55;;;0.60;;
75129;SDS011;63703;44.716;37.846;2022-10-13T00:04:40;2.50;;;0.90;;
75129;SDS011;63703;44.716;37.846;2022-10-13T00:07:05;2.17;;;1.20;;
75129;SDS011;63703;44.716;37.846;2022-10-13T00:09:31;3.38;;;0.95;;
75129;SDS011;63703;44.716;37.846;2022-10-13T00:11:56;4.57;;;1.40;;
75129;SDS011;63703;44.716;37.846;2022-10-13T00:14:22;2.35;;;1.65;;
75129;SDS011;63703;44.716;37.846;2022-10-13T00:16:48;4.28;;;1.00;;
75129;SDS011;63703;44.716;37.846;2022-10-13T00:19:13;2.97;;;0.80;;
75129;SDS011;63703;44.716;37.846;2022-10-13T00:21:39;3.22;;;1.83;;
75129;SDS011;63703;44.716;37.846;2022-10-13T00:24:05;2.47;;;1.38;;
75129;SDS011;63703;44.716;37.846;2022-10-13T00:26:33;3.10;;;0.90;;
75129;SDS011;63703;44.716;37.846;2022-10-13T00:28:59;2.90;;;1.33;;
75129;SDS011;63703;44.716;37.846;2022-10-13T00:31:26;3.45;;;0.85;;
75129;SDS011;63703;44.716;37.846;2022-10-13T00:33:52;2.30;;;1.40;;
75129;SDS011;63703;44.716;37.846;2022-10-13T00:36:19;2.70;;;1.25;;
75129;SDS011;63703;44.716;37.846;2022-10-13T00:38:45;2.40;;;1.00;;
75129;SDS011;63703;44.716;37.846;2022-10-13T00:41:11;4.20;;;0.68;;
75129;SDS011;63703;44.716;37.846;2022-10-13T00:43:49;2.28;;;1.20;;
75129;SDS011;63703;44.716;37.846;2022-10-13T00:46:17;2.75;;;1.85;;
75129;SDS011;63703;44.716;37.846;2022-10-13T00:48:43;2.83;;;1.17;;
75129;SDS011;63703;44.716;37.846;2022-10-13T00:51:09;3.03;;;2.67;;
75129;SDS011;63703;44.716;37.846;2022-10-13T00:53:37;2.38;;;1.48;;
75129;SDS011;63703;44.716;37.846;2022-10-13T00:56:04;4.15;;;1.10;;
75129;SDS011;63703;44.716;37.846;2022-10-13T00:58:30;2.38;;;1.50;;
75129;SDS011;63703;44.716;37.846;2022-10-13T01:00:57;3.00;;;1.10;;
75129;SDS011;63703;44.716;37.846;2022-10-13T01:03:23;2.95;;;1.90;;
75129;SDS011;63703;44.716;37.846;2022-10-13T01:05:50;3.55;;;1.58;;
75129;SDS011;63703;44.716;37.846;2022-10-13T01:08:17;2.55;;;1.48;;
75129;SDS011;63703;44.716;37.846;2022-10-13T01:10:54;3.22;;;1.27;;
75129;SDS011;63703;44.716;37.846;2022-10-13T01:13:23;3.00;;;1.10;;
75129;SDS011;63703;44.716;37.846;2022-10-13T01:23:58;2.88;;;1.02;;
75129;SDS011;63703;44.716;37.846;2022-10-13T01:37:21;3.03;;;2.25;;
75129;SDS011;63703;44.716;37.846;2022-10-13T01:39:39;2.63;;;1.73;;
75129;SDS011;63703;44.716;37.846;2022-10-13T01:42:11;2.53;;;0.70;;
75129;SDS011;63703;44.716;37.846;2022-10-13T01:44:42;2.80;;;1.13;;
75129;SDS011;63703;44.716;37.846;2022-10-13T01:47:10;2.47;;;1.40;;
75129;SDS011;63703;44.716;37.846;2022-10-13T01:49:37;3.72;;;1.35;;
75129;SDS011;63703;44.716;37.846;2022-10-13T01:52:07;2.67;;;0.90;;
75129;SDS011;63703;44.716;37.846;2022-10-13T01:54:34;3.42;;;1.52;;
75129;SDS011;63703;44.716;37.846;2022-10-13T01:57:00;2.03;;;1.13;;
75129;SDS011;63703;44.716;37.846;2022-10-13T01:59:26;2.28;;;1.02;;
75129;SDS011;63703;44.716;37.846;2022-10-13T02:02:02;3.75;;;1.30;;
75129;SDS011;63703;44.716;37.846;2022-10-13T02:04:41;4.07;;;0.90;;
75129;SDS011;63703;44.716;37.846;2022-10-13T02:12:29;3.03;;;1.52;;
75129;SDS011;63703;44.716;37.846;2022-10-13T02:14:56;3.13;;;1.58;;
75129;SDS011;63703;44.716;37.846;2022-10-13T02:17:24;2.58;;;1.55;;
75129;SDS011;63703;44.716;37.846;2022-10-13T02:19:51;5.13;;;2.17;;
75129;SDS011;63703;44.716;37.846;2022-10-13T02:22:17;3.28;;;1.40;;
75129;SDS011;63703;44.716;37.846;2022-10-13T02:24:43;2.97;;;2.20;;
75129;SDS011;63703;44.716;37.846;2022-10-13T02:27:09;4.05;;;1.50;;
75129;SDS011;63703;44.716;37.846;2022-10-13T02:29:47;2.50;;;1.25;;
75129;SDS011;63703;44.716;37.846;2022-10-13T02:32:13;3.35;;;0.90;;
75129;SDS011;63703;44.716;37.846;2022-10-13T02:34:38;4.03;;;2.13;;
75129;SDS011;63703;44.716;37.846;2022-10-13T02:37:04;5.63;;;2.53;;
75129;SDS011;63703;44.716;37.846;2022-10-13T02:39:29;3.75;;;1.30;;
75129;SDS011;63703;44.716;37.846;2022-10-13T02:41:55;3.95;;;1.02;;
75129;SDS011;63703;44.716;37.846;2022-10-13T02:44:21;3.20;;;1.20;;
75129;SDS011;63703;44.716;37.846;2022-10-13T02:46:49;3.60;;;2.28;;
75129;SDS011;63703;44.716;37.846;2022-10-13T02:49:14;4.00;;;1.20;;
75129;SDS011;63703;44.716;37.846;2022-10-13T02:51:40;2.88;;;1.45;;
75129;SDS011;63703;44.716;37.846;2022-10-13T02:54:06;4.35;;;1.67;;
75129;SDS011;63703;44.716;37.846;2022-10-13T02:56:31;4.30;;;2.40;;
75129;SDS011;63703;44.716;37.846;2022-10-13T02:58:57;3.63;;;1.65;;
75129;SDS011;63703;44.716;37.846;2022-10-13T03:01:22;3.38;;;1.77;;
75129;SDS011;63703;44.716;37.846;2022-10-13T03:03:48;5.38;;;1.25;;
75129;SDS011;63703;44.716;37.846;2022-10-13T03:06:14;7.00;;;2.13;;
75129;SDS011;63703;44.716;37.846;2022-10-13T03:08:40;4.30;;;1.58;;
75129;SDS011;63703;44.716;37.846;2022-10-13T03:11:08;3.00;;;0.80;;
75129;SDS011;63703;44.716;37.846;2022-10-13T03:13:35;5.30;;;2.28;;
75129;SDS011;63703;44.716;37.846;2022-10-13T03:16:05;4.97;;;1.65;;
75129;SDS011;63703;44.716;37.846;2022-10-13T03:18:30;3.83;;;1.75;;
75129;SDS011;63703;44.716;37.846;2022-10-13T03:20:57;4.25;;;2.20;;
75129;SDS011;63703;44.716;37.846;2022-10-13T03:23:23;7.05;;;2.65;;
75129;SDS011;63703;44.716;37.846;2022-10-13T03:25:48;4.50;;;1.83;;
75129;SDS011;63703;44.716;37.846;2022-10-13T03:28:14;4.70;;;2.58;;
75129;SDS011;63703;44.716;37.846;2022-10-13T03:30:44;9.50;;;2.15;;
75129;SDS011;63703;44.716;37.846;2022-10-13T03:33:10;5.32;;;2.03;;
75129;SDS011;63703;44.716;37.846;2022-10-13T03:35:35;4.57;;;1.30;;
75129;SDS011;63703;44.716;37.846;2022-10-13T03:38:01;4.88;;;2.25;;
75129;SDS011;63703;44.716;37.846;2022-10-13T03:40:28;8.40;;;1.95;;
75129;SDS011;63703;44.716;37.846;2022-10-13T03:42:54;6.25;;;2.65;;
75129;SDS011;63703;44.716;37.846;2022-10-13T03:45:19;5.70;;;2.20;;
75129;SDS011;63703;44.716;37.846;2022-10-13T03:47:45;5.85;;;2.55;;
75129;SDS011;63703;44.716;37.846;2022-10-13T03:50:11;7.13;;;2.67;;
75129;SDS011;63703;44.716;37.846;2022-10-13T03:52:36;6.55;;;2.15;;
75129;SDS011;63703;44.716;37.846;2022-10-13T03:55:02;4.63;;;2.63;;
75129;SDS011;63703;44.716;37.846;2022-10-13T03:57:27;7.15;;;3.08;;
75129;SDS011;63703;44.716;37.846;2022-10-13T03:59:53;5.60;;;1.92;;
75129;SDS011;63703;44.716;37.846;2022-10-13T04:02:24;6.45;;;2.95;;
75129;SDS011;63703;44.716;37.846;2022-10-13T04:04:50;5.70;;;1.98;;
75129;SDS011;63703;44.716;37.846;2022-10-13T04:07:15;7.13;;;3.33;;
75129;SDS011;63703;44.716;37.846;2022-10-13T04:09:41;8.35;;;3.53;;
75129;SDS011;63703;44.716;37.846;2022-10-13T04:12:07;7.15;;;3.03;;
75129;SDS011;63703;44.716;37.846;2022-10-13T04:14:32;6.03;;;2.53;;
75129;SDS011;63703;44.716;37.846;2022-10-13T04:17:06;6.10;;;2.90;;
75129;SDS011;63703;44.716;37.846;2022-10-13T04:19:32;5.72;;;1.65;;
75129;SDS011;63703;44.716;37.846;2022-10-13T04:22:01;6.53;;;1.75;;
75129;SDS011;63703;44.716;37.846;2022-10-13T04:24:27;10.85;;;3.40;;
75129;SDS011;63703;44.716;37.846;2022-10-13T04:26:53;4.07;;;2.38;;
75129;SDS011;63703;44.716;37.846;2022-10-13T04:29:19;4.93;;;1.52;;
75129;SDS011;63703;44.716;37.846;2022-10-13T04:31:50;5.82;;;2.00;;
75129;SDS011;63703;44.716;37.846;2022-10-13T04:34:15;4.75;;;2.05;;
75129;SDS011;63703;44.716;37.846;2022-10-13T04:36:41;6.70;;;2.40;;
75129;SDS011;63703;44.716;37.846;2022-10-13T04:39:06;5.03;;;2.20;;
75129;SDS011;63703;44.716;37.846;2022-10-13T04:41:33;5.82;;;2.88;;
75129;SDS011;63703;44.716;37.846;2022-10-13T04:43:59;4.38;;;1.27;;
75129;SDS011;63703;44.716;37.846;2022-10-13T04:46:27;5.22;;;1.63;;
75129;SDS011;63703;44.716;37.846;2022-10-13T04:48:55;6.85;;;2.22;;
75129;SDS011;63703;44.716;37.846;2022-10-13T04:51:24;7.55;;;1.80;;
75129;SDS011;63703;44.716;37.846;2022-10-13T04:53:56;7.72;;;2.78;;
75129;SDS011;63703;44.716;37.846;2022-10-13T04:56:22;5.65;;;1.95;;
75129;SDS011;63703;44.716;37.846;2022-10-13T04:58:48;5.05;;;2.20;;
75129;SDS011;63703;44.716;37.846;2022-10-13T05:01:15;5.00;;;2.55;;
75129;SDS011;63703;44.716;37.846;2022-10-13T05:03:41;6.05;;;3.50;;
75129;SDS011;63703;44.716;37.846;2022-10-13T05:06:17;5.43;;;2.08;;
75129;SDS011;63703;44.716;37.846;2022-10-13T05:08:46;6.32;;;2.83;;
75129;SDS011;63703;44.716;37.846;2022-10-13T05:11:14;4.35;;;1.50;;
75129;SDS011;63703;44.716;37.846;2022-10-13T05:13:41;6.50;;;2.60;;
75129;SDS011;63703;44.716;37.846;2022-10-13T05:16:07;4.95;;;2.20;;
75129;SDS011;63703;44.716;37.846;2022-10-13T05:18:32;6.32;;;2.08;;
75129;SDS011;63703;44.716;37.846;2022-10-13T05:21:05;6.13;;;2.35;;
75129;SDS011;63703;44.716;37.846;2022-10-13T05:23:33;5.50;;;2.50;;
75129;SDS011;63703;44.716;37.846;2022-10-13T05:26:05;5.38;;;1.92;;
75129;SDS011;63703;44.716;37.846;2022-10-13T05:28:32;4.55;;;1.33;;
75129;SDS011;63703;44.716;37.846;2022-10-13T05:31:06;4.18;;;1.30;;
75129;SDS011;63703;44.716;37.846;2022-10-13T05:33:32;6.85;;;2.30;;
75129;SDS011;63703;44.716;37.846;2022-10-13T05:36:05;4.18;;;1.20;;
75129;SDS011;63703;44.716;37.846;2022-10-13T05:38:34;7.80;;;1.38;;
75129;SDS011;63703;44.716;37.846;2022-10-13T05:41:03;4.93;;;1.73;;
75129;SDS011;63703;44.716;37.846;2022-10-13T05:43:30;4.13;;;2.10;;
75129;SDS011;63703;44.716;37.846;2022-10-13T05:45:56;4.10;;;1.58;;
75129;SDS011;63703;44.716;37.846;2022-10-13T05:48:23;5.85;;;1.02;;
75129;SDS011;63703;44.716;37.846;2022-10-13T05:50:49;3.17;;;0.75;;
75129;SDS011;63703;44.716;37.846;2022-10-13T05:53:14;6.45;;;1.08;;
75129;SDS011;63703;44.716;37.846;2022-10-13T05:55:40;3.42;;;0.95;;
75129;SDS011;63703;44.716;37.846;2022-10-13T05:58:05;2.97;;;1.00;;
75129;SDS011;63703;44.716;37.846;2022-10-13T06:00:31;2.55;;;0.85;;
75129;SDS011;63703;44.716;37.846;2022-10-13T06:02:58;2.25;;;0.77;;
75129;SDS011;63703;44.716;37.846;2022-10-13T06:05:27;3.72;;;0.70;;
75129;SDS011;63703;44.716;37.846;2022-10-13T06:07:54;3.05;;;0.80;;
75129;SDS011;63703;44.716;37.846;2022-10-13T06:10:20;2.72;;;0.75;;
75129;SDS011;63703;44.716;37.846;2022-10-13T06:12:46;3.28;;;0.65;;
75129;SDS011;63703;44.716;37.846;2022-10-13T06:15:11;3.20;;;0.68;;
75129;SDS011;63703;44.716;37.846;2022-10-13T06:17:37;2.95;;;1.27;;
75129;SDS011;63703;44.716;37.846;2022-10-13T06:20:04;2.67;;;1.13;;
75129;SDS011;63703;44.716;37.846;2022-10-13T06:22:31;2.97;;;0.88;;
75129;SDS011;63703;44.716;37.846;2022-10-13T06:24:57;4.03;;;0.80;;
75129;SDS011;63703;44.716;37.846;2022-10-13T06:27:22;3.17;;;0.68;;
75129;SDS011;63703;44.716;37.846;2022-10-13T06:29:51;3.35;;;1.23;;
75129;SDS011;63703;44.716;37.846;2022-10-13T06:32:17;4.05;;;1.05;;
75129;SDS011;63703;44.716;37.846;2022-10-13T06:34:43;3.58;;;1.15;;
75129;SDS011;63703;44.716;37.846;2022-10-13T06:37:08;5.65;;;1.05;;
75129;SDS011;63703;44.716;37.846;2022-10-13T06:39:34;3.95;;;1.15;;
75129;SDS011;63703;44.716;37.846;2022-10-13T06:42:02;1.75;;;0.40;;
75129;SDS011;63703;44.716;37.846;2022-10-13T06:44:29;2.97;;;1.40;;
75129;SDS011;63703;44.716;37.846;2022-10-13T06:46:59;3.78;;;1.00;;
75129;SDS011;63703;44.716;37.846;2022-10-13T06:49:27;2.28;;;1.10;;
75129;SDS011;63703;44.716;37.846;2022-10-13T06:51:52;2.90;;;1.23;;
75129;SDS011;63703;44.716;37.846;2022-10-13T06:54:18;2.00;;;0.75;;
75129;SDS011;63703;44.716;37.846;2022-10-13T06:56:43;4.82;;;1.10;;
75129;SDS011;63703;44.716;37.846;2022-10-13T06:59:09;2.70;;;0.73;;
75129;SDS011;63703;44.716;37.846;2022-10-13T07:01:36;4.90;;;2.08;;
75129;SDS011;63703;44.716;37.846;2022-10-13T07:04:06;6.13;;;0.32;;
75129;SDS011;63703;44.716;37.846;2022-10-13T07:06:32;3.17;;;0.77;;
75129;SDS011;63703;44.716;37.846;2022-10-13T07:08:57;5.10;;;1.75;;
75129;SDS011;63703;44.716;37.846;2022-10-13T07:11:23;3.92;;;1.30;;
75129;SDS011;63703;44.716;37.846;2022-10-13T07:13:54;3.00;;;0.55;;
75129;SDS011;63703;44.716;37.846;2022-10-13T07:16:20;2.00;;;0.50;;
75129;SDS011;63703;44.716;37.846;2022-10-13T07:18:46;3.38;;;0.73;;
75129;SDS011;63703;44.716;37.846;2022-10-13T07:21:12;2.85;;;0.98;;
75129;SDS011;63703;44.716;37.846;2022-10-13T07:23:37;4.50;;;0.85;;
75129;SDS011;63703;44.716;37.846;2022-10-13T07:26:07;2.97;;;1.50;;
75129;SDS011;63703;44.716;37.846;2022-10-13T07:28:33;2.67;;;0.63;;
75129;SDS011;63703;44.716;37.846;2022-10-13T07:30:59;2.30;;;1.10;;
75129;SDS011;63703;44.716;37.846;2022-10-13T07:33:24;5.90;;;1.55;;
75129;SDS011;63703;44.716;37.846;2022-10-13T07:35:51;4.28;;;1.63;;
75129;SDS011;63703;44.716;37.846;2022-10-13T07:38:16;2.83;;;0.65;;
75129;SDS011;63703;44.716;37.846;2022-10-13T07:40:46;2.90;;;0.70;;
75129;SDS011;63703;44.716;37.846;2022-10-13T07:43:12;2.63;;;0.85;;
75129;SDS011;63703;44.716;37.846;2022-10-13T07:45:38;3.15;;;0.95;;
75129;SDS011;63703;44.716;37.846;2022-10-13T07:48:03;2.70;;;0.60;;
75129;SDS011;63703;44.716;37.846;2022-10-13T07:50:29;2.83;;;1.15;;
75129;SDS011;63703;44.716;37.846;2022-10-13T07:52:54;2.78;;;0.77;;
75129;SDS011;63703;44.716;37.846;2022-10-13T07:55:20;2.33;;;0.65;;
75129;SDS011;63703;44.716;37.846;2022-10-13T07:57:49;3.70;;;0.63;;
75129;SDS011;63703;44.716;37.846;2022-10-13T08:00:15;2.50;;;0.57;;
75129;SDS011;63703;44.716;37.846;2022-10-13T08:02:40;3.58;;;0.68;;
75129;SDS011;63703;44.716;37.846;2022-10-13T08:05:06;2.80;;;1.38;;
75129;SDS011;63703;44.716;37.846;2022-10-13T08:07:32;2.10;;;0.98;;
75129;SDS011;63703;44.716;37.846;2022-10-13T08:09:57;2.50;;;0.65;;
75129;SDS011;63703;44.716;37.846;2022-10-13T08:12:23;3.58;;;1.70;;
75129;SDS011;63703;44.716;37.846;2022-10-13T08:14:49;3.13;;;0.52;;
75129;SDS011;63703;44.716;37.846;2022-10-13T08:17:15;2.58;;;0.80;;
75129;SDS011;63703;44.716;37.846;2022-10-13T08:19:40;2.78;;;0.82;;
75129;SDS011;63703;44.716;37.846;2022-10-13T08:22:07;2.17;;;0.90;;
75129;SDS011;63703;44.716;37.846;2022-10-13T08:24:34;3.10;;;0.57;;
75129;SDS011;63703;44.716;37.846;2022-10-13T08:27:00;2.42;;;0.80;;
75129;SDS011;63703;44.716;37.846;2022-10-13T08:29:26;2.33;;;1.10;;
75129;SDS011;63703;44.716;37.846;2022-10-13T08:31:51;2.60;;;0.63;;
75129;SDS011;63703;44.716;37.846;2022-10-13T08:34:17;2.08;;;0.77;;
75129;SDS011;63703;44.716;37.846;2022-10-13T08:36:43;3.50;;;0.85;;
75129;SDS011;63703;44.716;37.846;2022-10-13T08:39:08;3.22;;;1.20;;
75129;SDS011;63703;44.716;37.846;2022-10-13T08:41:38;3.53;;;0.82;;
75129;SDS011;63703;44.716;37.846;2022-10-13T08:49:40;5.28;;;0.77;;
75129;SDS011;63703;44.716;37.846;2022-10-13T08:52:08;2.60;;;1.52;;
75129;SDS011;63703;44.716;37.846;2022-10-13T08:54:37;2.00;;;0.85;;
75129;SDS011;63703;44.716;37.846;2022-10-13T08:57:03;1.63;;;0.85;;
75129;SDS011;63703;44.716;37.846;2022-10-13T08:59:30;4.15;;;0.43;;
75129;SDS011;63703;44.716;37.846;2022-10-13T09:01:56;6.05;;;1.33;;
75129;SDS011;63703;44.716;37.846;2022-10-13T09:09:22;1.67;;;0.68;;
75129;SDS011;63703;44.716;37.846;2022-10-13T09:11:48;2.72;;;0.77;;
75129;SDS011;63703;44.716;37.846;2022-10-13T09:16:49;2.33;;;0.60;;
75129;SDS011;63703;44.716;37.846;2022-10-13T09:21:44;4.00;;;0.57;;
75129;SDS011;63703;44.716;37.846;2022-10-13T09:24:14;2.90;;;0.57;;
75129;SDS011;63703;44.716;37.846;2022-10-13T09:26:41;1.98;;;0.50;;
75129;SDS011;63703;44.716;37.846;2022-10-13T09:29:17;2.38;;;0.55;;
75129;SDS011;63703;44.716;37.846;2022-10-13T09:31:43;3.10;;;1.15;;
75129;SDS011;63703;44.716;37.846;2022-10-13T09:34:14;2.47;;;0.60;;
75129;SDS011;63703;44.716;37.846;2022-10-13T09:36:58;1.70;;;0.70;;
75129;SDS011;63703;44.716;37.846;2022-10-13T09:39:24;1.98;;;0.45;;
75129;SDS011;63703;44.716;37.846;2022-10-13T09:41:50;2.83;;;0.52;;
75129;SDS011;63703;44.716;37.846;2022-10-13T09:44:34;2.33;;;0.52;;
75129;SDS011;63703;44.716;37.846;2022-10-13T09:47:00;2.17;;;0.63;;
75129;SDS011;63703;44.716;37.846;2022-10-13T09:51:52;2.10;;;1.05;;
75129;SDS011;63703;44.716;37.846;2022-10-13T09:54:43;2.90;;;0.60;;
75129;SDS011;63703;44.716;37.846;2022-10-13T10:00:03;4.65;;;0.73;;
75129;SDS011;63703;44.716;37.846;2022-10-13T10:03:12;2.08;;;0.55;;
75129;SDS011;63703;44.716;37.846;2022-10-13T10:08:12;3.85;;;0.52;;
75129;SDS011;63703;44.716;37.846;2022-10-13T10:10:39;1.80;;;0.35;;
75129;SDS011;63703;44.716;37.846;2022-10-13T10:13:10;2.88;;;1.00;;
75129;SDS011;63703;44.716;37.846;2022-10-13T10:21:01;2.25;;;0.85;;
75129;SDS011;63703;44.716;37.846;2022-10-13T10:23:54;2.40;;;0.60;;
75129;SDS011;63703;44.716;37.846;2022-10-13T10:39:29;2.42;;;0.47;;
75129;SDS011;63703;44.716;37.846;2022-10-13T10:44:33;1.67;;;0.45;;
75129;SDS011;63703;44.716;37.846;2022-10-13T10:47:03;2.60;;;0.30;;
75129;SDS011;63703;44.716;37.846;2022-10-13T10:49:34;3.72;;;0.95;;
75129;SDS011;63703;44.716;37.846;2022-10-13T10:52:02;4.80;;;0.98;;
75129;SDS011;63703;44.716;37.846;2022-10-13T10:57:07;2.35;;;0.63;;
75129;SDS011;63703;44.716;37.846;2022-10-13T10:59:54;2.25;;;0.68;;
75129;SDS011;63703;44.716;37.846;2022-10-13T11:04:48;3.08;;;0.55;;
75129;SDS011;63703;44.716;37.846;2022-10-13T11:14:46;3.28;;;1.08;;
75129;SDS011;63703;44.716;37.846;2022-10-13T11:17:16;4.63;;;1.00;;
75129;SDS011;63703;44.716;37.846;2022-10-13T11:19:42;8.95;;;0.95;;
75129;SDS011;63703;44.716;37.846;2022-10-13T11:22:12;3.78;;;0.75;;
75129;SDS011;63703;44.716;37.846;2022-10-13T11:37:23;3.97;;;0.77;;
75129;SDS011;63703;44.716;37.846;2022-10-13T11:40:02;3.90;;;0.80;;
75129;SDS011;63703;44.716;37.846;2022-10-13T12:00:34;5.28;;;1.55;;
75129;SDS011;63703;44.716;37.846;2022-10-13T12:03:00;5.97;;;1.17;;
75129;SDS011;63703;44.716;37.846;2022-10-13T12:05:26;5.93;;;2.08;;
75129;SDS011;63703;44.716;37.846;2022-10-13T12:07:53;7.70;;;1.58;;
75129;SDS011;63703;44.716;37.846;2022-10-13T12:10:34;7.07;;;1.65;;
75129;SDS011;63703;44.716;37.846;2022-10-13T12:13:01;9.85;;;2.25;;
75129;SDS011;63703;44.716;37.846;2022-10-13T12:17:57;8.75;;;2.13;;
75129;SDS011;63703;44.716;37.846;2022-10-13T12:20:27;9.10;;;2.17;;
75129;SDS011;63703;44.716;37.846;2022-10-13T12:22:53;6.75;;;2.03;;
75129;SDS011;63703;44.716;37.846;2022-10-13T12:25:23;7.25;;;2.28;;
75129;SDS011;63703;44.716;37.846;2022-10-13T12:27:57;10.50;;;2.67;;
75129;SDS011;63703;44.716;37.846;2022-10-13T12:30:24;7.75;;;1.83;;
75129;SDS011;63703;44.716;37.846;2022-10-13T12:32:51;7.90;;;2.20;;
75129;SDS011;63703;44.716;37.846;2022-10-13T12:35:25;11.68;;;2.38;;
75129;SDS011;63703;44.716;37.846;2022-10-13T12:37:51;8.40;;;3.22;;
75129;SDS011;63703;44.716;37.846;2022-10-13T12:40:17;8.30;;;2.40;;
75129;SDS011;63703;44.716;37.846;2022-10-13T12:42:43;5.00;;;1.30;;
75129;SDS011;63703;44.716;37.846;2022-10-13T12:45:16;6.93;;;1.48;;
75129;SDS011;63703;44.716;37.846;2022-10-13T12:55:32;4.18;;;1.48;;
75129;SDS011;63703;44.716;37.846;2022-10-13T12:57:58;4.18;;;0.52;;
75129;SDS011;63703;44.716;37.846;2022-10-13T13:00:25;4.32;;;0.57;;
75129;SDS011;63703;44.716;37.846;2022-10-13T13:02:52;7.45;;;0.60;;
75129;SDS011;63703;44.716;37.846;2022-10-13T13:05:35;3.72;;;0.93;;
75129;SDS011;63703;44.716;37.846;2022-10-13T13:08:02;2.40;;;0.22;;
75129;SDS011;63703;44.716;37.846;2022-10-13T13:10:28;6.35;;;0.65;;
75129;SDS011;63703;44.716;37.846;2022-10-13T13:12:54;3.00;;;0.25;;
75129;SDS011;63703;44.716;37.846;2022-10-13T13:17:49;2.42;;;0.68;;
75129;SDS011;63703;44.716;37.846;2022-10-13T13:20:23;3.50;;;0.50;;
75129;SDS011;63703;44.716;37.846;2022-10-13T13:22:50;2.33;;;0.50;;
75129;SDS011;63703;44.716;37.846;2022-10-13T13:25:15;4.63;;;0.57;;
75129;SDS011;63703;44.716;37.846;2022-10-13T13:27:41;4.07;;;0.35;;
75129;SDS011;63703;44.716;37.846;2022-10-13T13:30:10;4.28;;;0.75;;
75129;SDS011;63703;44.716;37.846;2022-10-13T13:32:36;2.08;;;0.38;;
75129;SDS011;63703;44.716;37.846;2022-10-13T13:35:02;2.88;;;0.85;;
75129;SDS011;63703;44.716;37.846;2022-10-13T13:37:33;1.73;;;0.35;;
75129;SDS011;63703;44.716;37.846;2022-10-13T13:39:59;2.42;;;0.85;;
75129;SDS011;63703;44.716;37.846;2022-10-13T13:42:28;2.50;;;0.75;;
75129;SDS011;63703;44.716;37.846;2022-10-13T13:44:54;3.28;;;0.80;;
75129;SDS011;63703;44.716;37.846;2022-10-13T13:47:21;2.30;;;1.00;;
75129;SDS011;63703;44.716;37.846;2022-10-13T13:49:48;3.58;;;0.50;;
75129;SDS011;63703;44.716;37.846;2022-10-13T13:52:14;2.42;;;0.82;;
75129;SDS011;63703;44.716;37.846;2022-10-13T13:54:40;6.07;;;0.50;;
75129;SDS011;63703;44.716;37.846;2022-10-13T13:57:05;6.13;;;1.60;;
75129;SDS011;63703;44.716;37.846;2022-10-13T13:59:31;5.22;;;1.80;;
75129;SDS011;63703;44.716;37.846;2022-10-13T14:01:57;6.18;;;1.00;;
75129;SDS011;63703;44.716;37.846;2022-10-13T14:04:24;8.65;;;2.17;;
75129;SDS011;63703;44.716;37.846;2022-10-13T14:06:50;7.05;;;2.53;;
75129;SDS011;63703;44.716;37.846;2022-10-13T14:09:16;8.35;;;2.67;;
75129;SDS011;63703;44.716;37.846;2022-10-13T14:11:42;7.28;;;2.92;;
75129;SDS011;63703;44.716;37.846;2022-10-13T14:14:07;6.20;;;1.92;;
75129;SDS011;63703;44.716;37.846;2022-10-13T14:16:33;8.30;;;2.10;;
75129;SDS011;63703;44.716;37.846;2022-10-13T14:19:04;5.45;;;1.75;;
75129;SDS011;63703;44.716;37.846;2022-10-13T14:21:29;7.53;;;1.67;;
75129;SDS011;63703;44.716;37.846;2022-10-13T14:23:56;9.60;;;2.15;;
75129;SDS011;63703;44.716;37.846;2022-10-13T14:26:21;6.18;;;1.73;;
75129;SDS011;63703;44.716;37.846;2022-10-13T14:28:48;8.35;;;1.90;;
75129;SDS011;63703;44.716;37.846;2022-10-13T14:31:13;4.78;;;1.42;;
75129;SDS011;63703;44.716;37.846;2022-10-13T14:33:40;7.32;;;2.13;;
75129;SDS011;63703;44.716;37.846;2022-10-13T14:36:06;6.15;;;1.55;;
75129;SDS011;63703;44.716;37.846;2022-10-13T14:38:32;10.52;;;2.80;;
75129;SDS011;63703;44.716;37.846;2022-10-13T14:40:58;14.48;;;2.70;;
75129;SDS011;63703;44.716;37.846;2022-10-13T14:43:24;9.93;;;2.00;;
75129;SDS011;63703;44.716;37.846;2022-10-13T14:45:50;11.05;;;4.18;;
75129;SDS011;63703;44.716;37.846;2022-10-13T14:48:16;13.52;;;4.22;;
75129;SDS011;63703;44.716;37.846;2022-10-13T14:50:42;11.52;;;4.32;;
75129;SDS011;63703;44.716;37.846;2022-10-13T14:53:07;10.25;;;4.00;;
75129;SDS011;63703;44.716;37.846;2022-10-13T14:55:35;14.27;;;5.82;;
75129;SDS011;63703;44.716;37.846;2022-10-13T14:58:01;14.50;;;4.30;;
75129;SDS011;63703;44.716;37.846;2022-10-13T15:00:27;12.05;;;5.30;;
75129;SDS011;63703;44.716;37.846;2022-10-13T15:02:53;12.35;;;6.15;;
75129;SDS011;63703;44.716;37.846;2022-10-13T15:05:21;12.85;;;5.50;;
75129;SDS011;63703;44.716;37.846;2022-10-13T15:07:46;20.75;;;6.75;;
75129;SDS011;63703;44.716;37.846;2022-10-13T15:10:12;12.93;;;5.22;;
75129;SDS011;63703;44.716;37.846;2022-10-13T15:12:38;15.35;;;5.55;;
75129;SDS011;63703;44.716;37.846;2022-10-13T15:15:03;13.52;;;5.35;;
75129;SDS011;63703;44.716;37.846;2022-10-13T15:17:29;13.30;;;6.60;;
75129;SDS011;63703;44.716;37.846;2022-10-13T15:19:55;14.57;;;5.97;;
75129;SDS011;63703;44.716;37.846;2022-10-13T15:22:21;15.45;;;6.63;;
75129;SDS011;63703;44.716;37.846;2022-10-13T15:24:46;13.60;;;5.88;;
75129;SDS011;63703;44.716;37.846;2022-10-13T15:27:12;14.82;;;6.55;;
75129;SDS011;63703;44.716;37.846;2022-10-13T15:29:38;16.52;;;7.18;;
75129;SDS011;63703;44.716;37.846;2022-10-13T15:32:10;17.75;;;7.03;;
75129;SDS011;63703;44.716;37.846;2022-10-13T15:34:39;17.58;;;6.32;;
75129;SDS011;63703;44.716;37.846;2022-10-13T15:37:04;20.17;;;7.35;;
75129;SDS011;63703;44.716;37.846;2022-10-13T15:39:30;20.15;;;6.90;;
75129;SDS011;63703;44.716;37.846;2022-10-13T15:41:56;18.73;;;8.40;;
75129;SDS011;63703;44.716;37.846;2022-10-13T15:44:24;16.17;;;7.32;;
75129;SDS011;63703;44.716;37.846;2022-10-13T15:46:50;19.58;;;7.85;;
75129;SDS011;63703;44.716;37.846;2022-10-13T15:49:20;17.20;;;7.60;;
75129;SDS011;63703;44.716;37.846;2022-10-13T15:51:46;19.08;;;8.25;;
75129;SDS011;63703;44.716;37.846;2022-10-13T15:54:13;19.23;;;7.25;;
75129;SDS011;63703;44.716;37.846;2022-10-13T15:56:38;19.70;;;7.57;;
75129;SDS011;63703;44.716;37.846;2022-10-13T15:59:04;21.50;;;9.13;;
75129;SDS011;63703;44.716;37.846;2022-10-13T16:01:30;19.90;;;8.07;;
75129;SDS011;63703;44.716;37.846;2022-10-13T16:03:55;21.00;;;8.57;;
75129;SDS011;63703;44.716;37.846;2022-10-13T16:06:21;18.83;;;8.43;;
75129;SDS011;63703;44.716;37.846;2022-10-13T16:08:49;22.42;;;8.98;;
75129;SDS011;63703;44.716;37.846;2022-10-13T16:11:15;23.13;;;8.50;;
75129;SDS011;63703;44.716;37.846;2022-10-13T16:13:45;22.13;;;8.52;;
75129;SDS011;63703;44.716;37.846;2022-10-13T16:16:11;22.48;;;9.27;;
75129;SDS011;63703;44.716;37.846;2022-10-13T16:18:37;22.08;;;8.23;;
75129;SDS011;63703;44.716;37.846;2022-10-13T16:21:07;24.25;;;8.52;;
75129;SDS011;63703;44.716;37.846;2022-10-13T16:23:32;21.58;;;9.05;;
75129;SDS011;63703;44.716;37.846;2022-10-13T16:26:00;23.90;;;10.48;;
75129;SDS011;63703;44.716;37.846;2022-10-13T16:28:26;36.35;;;13.55;;
75129;SDS011;63703;44.716;37.846;2022-10-13T16:30:52;37.92;;;16.13;;
75129;SDS011;63703;44.716;37.846;2022-10-13T16:33:18;35.42;;;14.95;;
75129;SDS011;63703;44.716;37.846;2022-10-13T16:35:43;42.63;;;17.77;;
75129;SDS011;63703;44.716;37.846;2022-10-13T16:38:12;35.00;;;16.60;;
75129;SDS011;63703;44.716;37.846;2022-10-13T16:40:38;37.42;;;16.52;;